Time;durP1;ratioP1;P1;durP2;ratioP2;P2;SDS_P1;SDS_P2;PMS_P1;PMS_P2;Temp;Humidity;BMP_temperature;BMP_pressure;BME280_temperature;BME280_humidity;BME280_pressure;Samples;Min_cycle;Max_cycle;Signal;HPM_P1;HPM_P2
2022/09/23 00:00:39;;;;;;;0.32;0.32;;;12.90;99.90;;;;;;5020909;28;20049;-68
2022/09/23 00:03:05;;;;;;;0.95;0.95;;;12.90;99.90;;;;;;5029740;28;20049;-68
2022/09/23 00:05:31;;;;;;;0.38;0.32;;;12.90;99.90;;;;;;5030624;28;20088;-68
2022/09/23 00:07:58;;;;;;;0.57;0.57;;;12.90;99.90;;;;;;5034639;28;20124;-68
2022/09/23 00:10:25;;;;;;;0.40;0.40;;;12.80;99.90;;;;;;5020774;28;20141;-68
2022/09/23 00:12:52;;;;;;;0.20;0.20;;;12.80;99.90;;;;;;5022769;28;20049;-68
2022/09/23 00:15:18;;;;;;;0.25;0.25;;;12.80;99.90;;;;;;5023632;28;20046;-68
2022/09/23 00:17:44;;;;;;;0.52;0.45;;;12.80;99.90;;;;;;5030276;28;20056;-68
2022/09/23 00:20:10;;;;;;;0.17;0.17;;;12.80;99.90;;;;;;5046683;28;20049;-68
2022/09/23 00:22:36;;;;;;;0.15;0.15;;;12.80;99.90;;;;;;5026723;28;20264;-68
2022/09/23 00:25:09;;;;;;;0.55;0.55;;;12.80;99.90;;;;;;5017030;28;20493;-68
2022/09/23 00:27:35;;;;;;;0.15;0.15;;;12.80;99.90;;;;;;5037152;28;20397;-68
2022/09/23 00:30:01;;;;;;;0.20;0.20;;;12.80;99.90;;;;;;5015474;28;20092;-67
2022/09/23 00:32:27;;;;;;;0.75;0.75;;;12.80;99.90;;;;;;5018567;28;20596;-68
2022/09/23 00:34:52;;;;;;;0.95;0.38;;;12.80;99.90;;;;;;5010112;28;20187;-67
2022/09/23 00:37:18;;;;;;;0.20;0.20;;;12.90;99.90;;;;;;5032255;28;20041;-68
2022/09/23 00:39:45;;;;;;;0.45;0.45;;;12.80;99.90;;;;;;5025843;28;20393;-68
2022/09/23 00:42:17;;;;;;;0.10;0.10;;;12.80;99.90;;;;;;5025982;28;20056;-68
2022/09/23 00:44:43;;;;;;;0.13;0.13;;;12.80;99.90;;;;;;5037130;28;20041;-68
2022/09/23 00:47:28;;;;;;;0.25;0.25;;;12.80;99.90;;;;;;5025062;28;20076;-68
2022/09/23 00:50:20;;;;;;;0.10;0.10;;;12.80;99.90;;;;;;5025331;28;20052;-68
2022/09/23 00:52:47;;;;;;;0.30;0.30;;;12.80;99.90;;;;;;5032728;28;20163;-68
2022/09/23 00:55:24;;;;;;;0.30;0.30;;;12.70;99.90;;;;;;5024979;28;20050;-68
2022/09/23 00:57:53;;;;;;;0.10;0.10;;;12.80;99.90;;;;;;5038543;28;20131;-68
2022/09/23 01:00:20;;;;;;;3.22;0.98;;;12.80;99.90;;;;;;5029377;28;20093;-68
2022/09/23 01:02:46;;;;;;;0.68;0.68;;;12.70;99.90;;;;;;5026294;28;20041;-68
2022/09/23 01:05:12;;;;;;;0.30;0.30;;;12.80;99.90;;;;;;5019242;28;20047;-67
2022/09/23 01:07:38;;;;;;;0.10;0.10;;;12.70;99.90;;;;;;5035121;28;20053;-68
2022/09/23 01:10:05;;;;;;;0.90;0.90;;;12.70;99.90;;;;;;5015621;28;20737;-69
2022/09/23 01:12:45;;;;;;;0.10;0.10;;;12.70;99.90;;;;;;5026011;28;20504;-69
2022/09/23 01:15:46;;;;;;;0.20;0.20;;;12.70;99.90;;;;;;5017316;28;20519;-69
2022/09/23 01:18:17;;;;;;;0.00;0.00;;;12.70;99.90;;;;;;5022944;28;20382;-69
2022/09/23 01:20:58;;;;;;;0.47;0.47;;;12.70;99.90;;;;;;5021638;28;20051;-69
2022/09/23 01:24:06;;;;;;;0.32;0.32;;;12.70;99.90;;;;;;5030511;28;20449;-69
2022/09/23 01:26:50;;;;;;;0.65;0.65;;;12.70;99.90;;;;;;5019325;28;20562;-68
2022/09/23 01:29:16;;;;;;;0.88;0.82;;;12.70;99.90;;;;;;5020837;28;20038;-69
2022/09/23 01:31:54;;;;;;;0.10;0.10;;;12.70;99.90;;;;;;5019871;28;20481;-69
2022/09/23 01:34:41;;;;;;;2.22;0.82;;;12.70;99.90;;;;;;5025902;28;20966;-69
2022/09/23 01:37:16;;;;;;;0.10;0.10;;;12.70;99.90;;;;;;5025897;28;20504;-69
2022/09/23 01:40:04;;;;;;;0.20;0.20;;;12.70;99.90;;;;;;5015752;28;20057;-69
2022/09/23 01:42:52;;;;;;;8.77;1.48;;;12.60;99.90;;;;;;5032152;28;20052;-70
2022/09/23 01:45:32;;;;;;;0.15;0.15;;;12.60;99.90;;;;;;5027067;28;20179;-70
2022/09/23 01:48:17;;;;;;;0.10;0.10;;;12.50;99.90;;;;;;5026069;28;20057;-70
2022/09/23 01:50:57;;;;;;;0.73;0.73;;;12.50;99.90;;;;;;5018317;28;20064;-70
2022/09/23 01:53:26;;;;;;;0.17;0.17;;;12.40;99.90;;;;;;5032446;28;20239;-68
2022/09/23 01:55:56;;;;;;;0.10;0.10;;;12.40;99.90;;;;;;5028896;28;20047;-69
2022/09/23 01:58:41;;;;;;;0.20;0.20;;;12.40;99.90;;;;;;5038283;28;20103;-69
2022/09/23 02:01:10;;;;;;;0.52;0.52;;;12.40;99.90;;;;;;5040594;28;20069;-69
2022/09/23 02:03:41;;;;;;;0.10;0.10;;;12.30;99.90;;;;;;5023683;28;20494;-68
2022/09/23 02:06:15;;;;;;;0.10;0.10;;;12.30;99.90;;;;;;5027630;28;20045;-69
2022/09/23 02:09:01;;;;;;;0.10;0.10;;;12.20;99.90;;;;;;5020191;28;20041;-69
2022/09/23 02:11:27;;;;;;;0.15;0.15;;;12.20;99.90;;;;;;5033304;28;20401;-69
2022/09/23 02:14:02;;;;;;;0.10;0.10;;;12.10;99.90;;;;;;5043214;28;20072;-69
2022/09/23 02:16:38;;;;;;;0.13;0.13;;;12.10;99.90;;;;;;5024118;28;20045;-69
2022/09/23 02:19:12;;;;;;;1.48;0.75;;;12.00;99.90;;;;;;5028709;28;20044;-69
2022/09/23 02:21:51;;;;;;;0.10;0.10;;;12.10;99.90;;;;;;5037285;28;20054;-69
2022/09/23 02:24:30;;;;;;;0.20;0.20;;;12.00;99.90;;;;;;5024775;28;20493;-69
2022/09/23 02:27:17;;;;;;;0.40;0.40;;;12.00;99.90;;;;;;5019960;28;20061;-69
2022/09/23 02:29:48;;;;;;;0.38;0.30;;;11.90;99.90;;;;;;5021325;28;20472;-69
2022/09/23 02:32:18;;;;;;;0.20;0.20;;;11.90;99.90;;;;;;5029123;28;20083;-69
2022/09/23 02:35:00;;;;;;;0.52;0.52;;;11.80;99.90;;;;;;5032876;28;20045;-69
2022/09/23 02:37:31;;;;;;;0.10;0.10;;;11.90;99.90;;;;;;5031326;28;20516;-69
2022/09/23 02:40:30;;;;;;;0.10;0.10;;;11.80;99.90;;;;;;5032224;28;20104;-69
2022/09/23 02:43:08;;;;;;;0.32;0.32;;;11.80;99.90;;;;;;5027712;28;21735;-69
2022/09/23 02:45:36;;;;;;;0.30;0.30;;;11.80;99.90;;;;;;5021909;28;20481;-69
2022/09/23 02:48:29;;;;;;;0.80;0.75;;;11.80;99.90;;;;;;5031076;28;20042;-69
2022/09/23 02:50:56;;;;;;;0.10;0.10;;;11.80;99.90;;;;;;5041733;28;20102;-70
2022/09/23 02:53:23;;;;;;;0.10;0.10;;;11.70;99.90;;;;;;5031091;28;20057;-69
2022/09/23 02:55:49;;;;;;;0.50;0.50;;;11.70;99.90;;;;;;5030411;28;20060;-69
2022/09/23 02:58:15;;;;;;;1.85;1.75;;;11.70;99.90;;;;;;5026632;28;20037;-69
2022/09/23 03:01:11;;;;;;;1.08;1.00;;;11.70;99.90;;;;;;5026664;28;20467;-70
2022/09/23 03:03:52;;;;;;;1.92;1.08;;;11.70;99.90;;;;;;5019120;28;20118;-69
2022/09/23 03:06:30;;;;;;;0.10;0.10;;;11.70;99.90;;;;;;5004231;28;20164;-69
2022/09/23 03:09:16;;;;;;;1.20;1.13;;;11.70;99.90;;;;;;5013306;28;20033;-67
2022/09/23 03:11:51;;;;;;;0.30;0.30;;;11.60;99.90;;;;;;5027692;28;20056;-67
2022/09/23 03:14:31;;;;;;;0.40;0.40;;;11.70;99.90;;;;;;5029542;28;20104;-67
2022/09/23 03:17:04;;;;;;;0.35;0.35;;;11.60;99.90;;;;;;5012072;28;20041;-67
2022/09/23 03:19:54;;;;;;;0.57;0.55;;;11.60;99.90;;;;;;5036009;28;20084;-67
2022/09/23 03:22:44;;;;;;;0.22;0.22;;;11.50;99.90;;;;;;5015256;28;20085;-67
2022/09/23 03:25:14;;;;;;;0.20;0.20;;;11.50;99.90;;;;;;5018018;28;20045;-67
2022/09/23 03:27:42;;;;;;;0.28;0.28;;;11.50;99.90;;;;;;5025821;28;20528;-67
2022/09/23 03:30:09;;;;;;;0.45;0.45;;;11.50;99.90;;;;;;5024231;28;20045;-67
2022/09/23 03:32:37;;;;;;;13.50;0.90;;;11.50;99.90;;;;;;5032212;28;20045;-67
2022/09/23 03:35:05;;;;;;;0.22;0.22;;;11.50;99.90;;;;;;5023557;28;20124;-67
2022/09/23 03:37:38;;;;;;;2.20;1.98;;;11.40;99.90;;;;;;5024459;28;20843;-67
2022/09/23 03:40:24;;;;;;;0.35;0.35;;;11.30;99.90;;;;;;5030054;28;20045;-67
2022/09/23 03:42:50;;;;;;;0.35;0.35;;;11.40;99.90;;;;;;5039738;28;20401;-67
2022/09/23 03:45:20;;;;;;;0.25;0.25;;;11.30;99.90;;;;;;5031367;28;20858;-67
2022/09/23 03:47:46;;;;;;;2.55;0.75;;;11.20;99.90;;;;;;5037415;28;20045;-67
2022/09/23 03:50:13;;;;;;;0.57;0.57;;;11.30;99.90;;;;;;5027671;28;20053;-67
2022/09/23 03:52:39;;;;;;;1.55;1.10;;;11.20;99.90;;;;;;5035810;28;20455;-67
2022/09/23 03:55:05;;;;;;;0.65;0.65;;;11.20;99.90;;;;;;5025879;28;20132;-67
2022/09/23 03:57:31;;;;;;;0.32;0.32;;;11.20;99.90;;;;;;5035449;28;20393;-67
2022/09/23 03:59:57;;;;;;;0.15;0.15;;;11.30;99.90;;;;;;5037353;28;20049;-67
2022/09/23 04:02:22;;;;;;;7.40;0.82;;;11.20;99.90;;;;;;5030008;28;20057;-67
2022/09/23 04:04:48;;;;;;;0.90;0.65;;;11.30;99.90;;;;;;5034075;28;20087;-67
2022/09/23 04:07:14;;;;;;;0.17;0.17;;;11.20;99.90;;;;;;5033549;28;20128;-67
2022/09/23 04:09:40;;;;;;;0.90;0.88;;;11.30;99.90;;;;;;5026355;28;20052;-67
2022/09/23 04:12:06;;;;;;;0.60;0.60;;;11.20;99.90;;;;;;5030755;28;20381;-67
2022/09/23 04:14:32;;;;;;;0.35;0.35;;;11.20;99.90;;;;;;5028544;28;20046;-67
2022/09/23 04:16:57;;;;;;;0.47;0.47;;;11.20;99.90;;;;;;5025441;28;20489;-67
2022/09/23 04:19:23;;;;;;;0.65;0.57;;;11.20;99.90;;;;;;5027245;28;20042;-67
2022/09/23 04:21:48;;;;;;;0.57;0.57;;;11.20;99.90;;;;;;5023399;28;20037;-67
2022/09/23 04:24:15;;;;;;;1.00;1.00;;;11.20;99.90;;;;;;5017852;28;20141;-67
2022/09/23 04:26:41;;;;;;;0.10;0.10;;;11.20;99.90;;;;;;5023412;28;20046;-67
2022/09/23 04:29:08;;;;;;;0.52;0.52;;;11.20;99.90;;;;;;5026467;28;20452;-67
2022/09/23 04:31:34;;;;;;;0.25;0.25;;;11.20;99.90;;;;;;5027916;28;20081;-67
2022/09/23 04:34:00;;;;;;;0.90;0.75;;;11.10;99.90;;;;;;5024907;28;20088;-67
2022/09/23 04:36:25;;;;;;;0.20;0.20;;;11.20;99.90;;;;;;5021894;28;20049;-67
2022/09/23 04:38:51;;;;;;;0.25;0.25;;;11.20;99.90;;;;;;5029396;28;20115;-67
2022/09/23 04:41:18;;;;;;;0.47;0.47;;;11.20;99.90;;;;;;5025161;28;20049;-67
2022/09/23 04:43:44;;;;;;;0.43;0.43;;;11.20;99.90;;;;;;5027767;28;20496;-67
2022/09/23 04:46:12;;;;;;;0.17;0.17;;;11.20;99.90;;;;;;5025087;28;20049;-67
2022/09/23 04:48:42;;;;;;;0.20;0.20;;;11.30;99.90;;;;;;5032886;28;20044;-67
2022/09/23 04:51:13;;;;;;;0.10;0.10;;;11.30;99.90;;;;;;5022671;28;20085;-67
2022/09/23 04:53:42;;;;;;;0.28;0.28;;;11.20;99.90;;;;;;5032061;28;20129;-67
2022/09/23 04:56:22;;;;;;;0.10;0.10;;;11.20;99.90;;;;;;5029090;28;20497;-67
2022/09/23 04:58:48;;;;;;;0.20;0.20;;;11.20;99.90;;;;;;5028547;28;20152;-67
2022/09/23 05:01:23;;;;;;;0.20;0.20;;;11.30;99.90;;;;;;5024695;28;20061;-68
2022/09/23 05:03:50;;;;;;;0.85;0.40;;;11.30;99.90;;;;;;5038642;28;20048;-68
2022/09/23 05:06:16;;;;;;;0.55;0.55;;;11.30;99.90;;;;;;5025046;28;20489;-68
2022/09/23 05:08:49;;;;;;;1.60;1.52;;;11.30;99.90;;;;;;5023308;28;20064;-68
2022/09/23 05:11:17;;;;;;;0.30;0.30;;;11.30;99.90;;;;;;5033734;28;20476;-68
2022/09/23 05:13:46;;;;;;;0.28;0.28;;;11.30;99.90;;;;;;5029871;28;20049;-67
2022/09/23 05:16:13;;;;;;;0.50;0.50;;;11.30;99.90;;;;;;5019289;28;20052;-68
2022/09/23 05:18:41;;;;;;;0.63;0.63;;;11.20;99.90;;;;;;5025292;28;20076;-68
2022/09/23 05:21:09;;;;;;;2.33;0.70;;;11.30;99.90;;;;;;5015200;28;20038;-68
2022/09/23 05:23:35;;;;;;;0.30;0.30;;;11.20;99.90;;;;;;5028079;28;20037;-68
2022/09/23 05:26:09;;;;;;;3.83;1.40;;;11.20;99.90;;;;;;5025296;28;20508;-68
2022/09/23 05:28:38;;;;;;;0.28;0.28;;;11.20;99.90;;;;;;5023456;28;20037;-68
2022/09/23 05:31:05;;;;;;;0.15;0.15;;;11.20;99.90;;;;;;5032725;28;20072;-68
2022/09/23 05:33:31;;;;;;;0.20;0.20;;;11.10;99.90;;;;;;5014124;28;20042;-68
2022/09/23 05:35:57;;;;;;;1.13;0.80;;;11.20;99.90;;;;;;5022724;28;20504;-68
2022/09/23 05:38:23;;;;;;;0.57;0.57;;;11.20;99.90;;;;;;5015733;28;20037;-68
2022/09/23 05:41:01;;;;;;;0.35;0.35;;;11.10;99.90;;;;;;5026344;28;20034;-67
2022/09/23 05:43:27;;;;;;;0.80;0.80;;;11.20;99.90;;;;;;5034688;28;20103;-68
2022/09/23 05:46:03;;;;;;;0.30;0.30;;;11.20;99.90;;;;;;5024342;28;20041;-68
2022/09/23 05:48:30;;;;;;;0.20;0.20;;;11.20;99.90;;;;;;5011965;28;20513;-68
2022/09/23 05:50:56;;;;;;;0.13;0.13;;;11.20;99.90;;;;;;5017782;28;20041;-69
2022/09/23 05:53:21;;;;;;;0.17;0.17;;;11.20;99.90;;;;;;5022608;28;20481;-69
2022/09/23 05:55:47;;;;;;;0.20;0.20;;;11.20;99.90;;;;;;5020168;28;20037;-69
2022/09/23 05:58:13;;;;;;;0.38;0.38;;;11.30;99.90;;;;;;5019370;28;20396;-69
2022/09/23 06:00:40;;;;;;;0.30;0.30;;;11.30;99.90;;;;;;5027720;28;20081;-68
2022/09/23 06:03:14;;;;;;;0.57;0.57;;;11.30;99.90;;;;;;5015606;28;20512;-68
2022/09/23 06:05:39;;;;;;;0.82;0.82;;;11.30;99.90;;;;;;5039355;28;20955;-68
2022/09/23 06:08:06;;;;;;;0.75;0.75;;;11.40;99.90;;;;;;5021064;28;20053;-69
2022/09/23 06:10:36;;;;;;;0.40;0.40;;;11.40;99.90;;;;;;5018533;28;20042;-69
2022/09/23 06:13:02;;;;;;;0.45;0.38;;;11.50;99.90;;;;;;5024134;28;20045;-69
2022/09/23 06:15:28;;;;;;;1.08;0.85;;;11.50;99.90;;;;;;5036024;28;20030;-68
2022/09/23 06:17:53;;;;;;;1.77;1.27;;;11.50;99.90;;;;;;5020642;28;20433;-68
2022/09/23 06:20:19;;;;;;;0.43;0.43;;;11.60;99.90;;;;;;5021758;28;20092;-69
2022/09/23 06:22:45;;;;;;;1.00;1.00;;;11.60;99.90;;;;;;5035250;28;20050;-69
2022/09/23 06:25:11;;;;;;;0.10;0.10;;;11.70;99.90;;;;;;5027773;28;20049;-69
2022/09/23 06:27:37;;;;;;;0.45;0.45;;;11.70;99.90;;;;;;5014706;28;20508;-69
2022/09/23 06:30:04;;;;;;;0.47;0.47;;;11.70;99.90;;;;;;5022338;28;20033;-69
2022/09/23 06:32:29;;;;;;;0.10;0.10;;;11.70;99.90;;;;;;5016922;28;20042;-69
2022/09/23 06:34:55;;;;;;;0.15;0.15;;;11.70;99.90;;;;;;5031176;28;20060;-69
2022/09/23 06:37:22;;;;;;;0.15;0.15;;;11.70;99.90;;;;;;5018427;28;20068;-68
2022/09/23 06:39:48;;;;;;;0.22;0.22;;;11.80;99.90;;;;;;5034740;28;20049;-68
2022/09/23 06:42:15;;;;;;;0.25;0.25;;;11.80;99.90;;;;;;5042927;28;20057;-68
2022/09/23 06:44:41;;;;;;;0.20;0.20;;;11.90;99.90;;;;;;5030325;28;20037;-68
2022/09/23 06:47:07;;;;;;;0.50;0.50;;;11.90;99.90;;;;;;5025560;28;20102;-68
2022/09/23 06:49:32;;;;;;;0.10;0.10;;;12.00;99.90;;;;;;5017915;28;20037;-68
2022/09/23 06:51:58;;;;;;;0.40;0.40;;;12.10;99.90;;;;;;5040680;28;20052;-68
2022/09/23 06:54:27;;;;;;;0.65;0.65;;;12.00;99.90;;;;;;5023473;28;20057;-68
2022/09/23 06:56:53;;;;;;;0.30;0.30;;;12.10;99.90;;;;;;5023747;28;20059;-68
2022/09/23 06:59:19;;;;;;;0.38;0.30;;;12.20;99.90;;;;;;5032468;28;20116;-68
2022/09/23 07:01:46;;;;;;;0.10;0.10;;;12.20;99.90;;;;;;5030749;28;20611;-68
2022/09/23 07:04:13;;;;;;;0.20;0.20;;;12.20;99.90;;;;;;5030935;28;20033;-68
2022/09/23 07:06:39;;;;;;;0.63;0.57;;;12.20;99.90;;;;;;5025776;28;20037;-68
2022/09/23 07:09:06;;;;;;;0.30;0.30;;;12.20;99.90;;;;;;5030394;28;20489;-68
2022/09/23 07:11:31;;;;;;;0.30;0.30;;;12.30;99.90;;;;;;5025897;28;20049;-68
2022/09/23 07:13:57;;;;;;;0.20;0.20;;;12.30;99.90;;;;;;5029123;28;20102;-68
2022/09/23 07:16:23;;;;;;;0.50;0.50;;;12.40;99.90;;;;;;5029740;28;20469;-68
2022/09/23 07:18:48;;;;;;;0.20;0.20;;;12.40;99.90;;;;;;5016181;28;20060;-68
2022/09/23 07:21:16;;;;;;;0.47;0.40;;;12.50;99.90;;;;;;5031745;28;20045;-68
2022/09/23 07:23:44;;;;;;;0.10;0.10;;;12.40;99.90;;;;;;5036957;28;20042;-68
2022/09/23 07:26:10;;;;;;;0.63;0.55;;;12.50;99.90;;;;;;5024649;28;20125;-68
2022/09/23 07:28:37;;;;;;;0.00;0.00;;;12.50;99.90;;;;;;5031287;28;20053;-68
2022/09/23 07:31:08;;;;;;;0.20;0.20;;;12.50;99.90;;;;;;5023521;28;20067;-68
2022/09/23 07:33:39;;;;;;;0.20;0.20;;;12.60;99.90;;;;;;5036091;28;20092;-68
2022/09/23 07:36:07;;;;;;;0.10;0.10;;;12.60;99.90;;;;;;5025017;28;20052;-68
2022/09/23 07:38:33;;;;;;;0.13;0.13;;;12.70;99.90;;;;;;5041695;28;20132;-68
2022/09/23 07:41:07;;;;;;;0.32;0.32;;;12.70;99.90;;;;;;5032896;28;20464;-67
2022/09/23 07:43:33;;;;;;;0.00;0.00;;;12.80;99.90;;;;;;5025608;28;20084;-68
2022/09/23 07:46:01;;;;;;;0.00;0.00;;;12.80;99.90;;;;;;5029341;28;20049;-69
2022/09/23 07:48:28;;;;;;;0.30;0.30;;;12.90;99.90;;;;;;5019941;28;20963;-69
2022/09/23 07:50:55;;;;;;;0.10;0.10;;;12.90;99.90;;;;;;5043770;28;20485;-68
2022/09/23 07:53:22;;;;;;;0.85;0.70;;;13.00;99.90;;;;;;5038413;28;20048;-70
2022/09/23 07:55:55;;;;;;;0.28;0.25;;;13.00;99.90;;;;;;5025243;28;20049;-68
2022/09/23 07:58:21;;;;;;;;;;;13.10;99.90;;;;;;5021064;28;20045;-69
2022/09/23 08:00:49;;;;;;;0.10;0.10;;;13.20;99.90;;;;;;5019225;28;20008;-69
2022/09/23 08:03:15;;;;;;;0.47;0.47;;;13.30;99.90;;;;;;5033234;28;20058;-69
2022/09/23 08:05:41;;;;;;;0.75;0.75;;;13.40;99.90;;;;;;5036249;28;20037;-69
2022/09/23 08:08:07;;;;;;;0.17;0.17;;;13.40;99.90;;;;;;5022988;28;20385;-69
2022/09/23 08:10:33;;;;;;;0.30;0.30;;;13.40;99.90;;;;;;5034683;28;20033;-69
2022/09/23 08:13:00;;;;;;;0.50;0.43;;;13.50;99.90;;;;;;5038031;28;20049;-69
2022/09/23 08:15:27;;;;;;;0.20;0.20;;;13.50;99.90;;;;;;5019921;28;20535;-69
2022/09/23 08:17:52;;;;;;;0.10;0.10;;;13.50;99.90;;;;;;5035169;28;20053;-69
2022/09/23 08:23:02;;;;;;;0.47;0.47;;;13.60;99.90;;;;;;5021519;28;20049;-69
2022/09/23 08:25:28;;;;;;;0.10;0.10;;;13.60;99.90;;;;;;5024347;28;20046;-68
2022/09/23 08:27:54;;;;;;;0.20;0.20;;;13.50;99.90;;;;;;5026903;28;20049;-68
2022/09/23 08:30:19;;;;;;;0.20;0.20;;;13.60;99.90;;;;;;5024948;28;20042;-69
2022/09/23 08:32:49;;;;;;;0.15;0.15;;;13.60;99.90;;;;;;5023852;28;20045;-69
2022/09/23 08:35:15;;;;;;;0.73;0.32;;;13.50;99.90;;;;;;5039822;28;20040;-69
2022/09/23 08:37:40;;;;;;;0.10;0.10;;;13.60;99.90;;;;;;5020825;28;20096;-69
2022/09/23 08:40:06;;;;;;;0.55;0.52;;;13.60;99.90;;;;;;5020158;28;20047;-70
2022/09/23 08:42:34;;;;;;;0.40;0.40;;;13.60;99.90;;;;;;5031754;28;20050;-69
2022/09/23 08:45:04;;;;;;;0.20;0.20;;;13.60;99.90;;;;;;5040599;28;20052;-70
2022/09/23 08:47:52;;;;;;;0.13;0.13;;;13.60;99.90;;;;;;5030219;28;20041;-69
2022/09/23 08:50:25;;;;;;;0.10;0.10;;;13.70;99.90;;;;;;5028439;28;20524;-69
2022/09/23 08:52:56;;;;;;;0.65;0.65;;;13.70;99.90;;;;;;5040727;28;20388;-69
2022/09/23 08:55:33;;;;;;;0.52;0.52;;;13.70;99.90;;;;;;5036741;28;20060;-69
2022/09/23 08:58:20;;;;;;;0.10;0.10;;;13.80;99.90;;;;;;5029041;28;20049;-69
2022/09/23 09:00:58;;;;;;;0.22;0.22;;;13.80;99.90;;;;;;5012237;28;20061;-69
2022/09/23 09:03:35;;;;;;;0.43;0.43;;;13.90;99.90;;;;;;5034745;28;20095;-70
2022/09/23 09:06:02;;;;;;;0.15;0.15;;;13.90;99.90;;;;;;5030625;28;20053;-70
2022/09/23 09:08:32;;;;;;;0.10;0.10;;;14.00;99.90;;;;;;5027410;28;20042;-70
2022/09/23 09:10:58;;;;;;;0.95;0.95;;;14.00;99.90;;;;;;5036103;28;20107;-69
2022/09/23 09:13:33;;;;;;;0.20;0.20;;;14.00;99.90;;;;;;5025683;28;20496;-70
2022/09/23 09:16:11;;;;;;;0.30;0.30;;;14.10;99.90;;;;;;5033616;28;20060;-69
2022/09/23 09:18:54;;;;;;;0.10;0.10;;;14.10;99.90;;;;;;5026776;28;20122;-69
2022/09/23 09:21:26;;;;;;;0.98;0.90;;;14.10;99.90;;;;;;5028875;28;20045;-69
2022/09/23 09:23:58;;;;;;;0.20;0.20;;;14.20;99.90;;;;;;5021286;28;20045;-69
2022/09/23 09:26:30;;;;;;;0.45;0.40;;;14.20;99.90;;;;;;5025032;28;20052;-69
2022/09/23 09:29:15;;;;;;;0.10;0.10;;;14.20;99.90;;;;;;5040446;28;20506;-69
2022/09/23 09:31:46;;;;;;;0.10;0.10;;;14.20;99.90;;;;;;5019359;28;20042;-70
2022/09/23 09:34:20;;;;;;;0.75;0.75;;;14.30;99.90;;;;;;5029451;28;20045;-70
2022/09/23 09:37:11;;;;;;;0.45;0.22;;;14.30;99.90;;;;;;5038244;28;20877;-69
2022/09/23 09:39:37;;;;;;;0.30;0.30;;;14.40;99.90;;;;;;5028100;28;20049;-70
2022/09/23 09:42:04;;;;;;;0.10;0.10;;;14.40;99.90;;;;;;5009169;28;20050;-70
2022/09/23 09:44:49;;;;;;;2.28;1.40;;;14.50;99.90;;;;;;5025985;28;20065;-70
2022/09/23 09:47:46;;;;;;;0.10;0.10;;;14.50;99.90;;;;;;5021809;28;20045;-70
2022/09/23 09:50:17;;;;;;;0.20;0.20;;;14.50;99.90;;;;;;5041288;28;20110;-70
2022/09/23 09:52:43;;;;;;;0.10;0.10;;;14.60;99.90;;;;;;5028305;28;20527;-70
2022/09/23 09:55:12;;;;;;;0.20;0.20;;;14.60;99.90;;;;;;5030479;28;20045;-70
2022/09/23 09:57:47;;;;;;;0.03;0.03;;;14.60;99.90;;;;;;5031204;28;20045;-70
2022/09/23 10:00:20;;;;;;;0.30;0.30;;;14.60;99.90;;;;;;5021469;28;20058;-70
2022/09/23 10:02:48;;;;;;;;;;;14.60;99.90;;;;;;5025454;28;20045;-70
2022/09/23 10:05:26;;;;;;;0.35;0.35;;;14.70;99.90;;;;;;5028780;28;20007;-69
2022/09/23 10:07:53;;;;;;;0.10;0.10;;;14.70;99.90;;;;;;5024311;28;20041;-69
2022/09/23 10:10:24;;;;;;;0.17;0.17;;;14.70;99.90;;;;;;5019203;28;20079;-71
2022/09/23 10:12:51;;;;;;;0.57;0.57;;;14.70;99.90;;;;;;5033631;28;20120;-70
2022/09/23 10:15:41;;;;;;;0.00;0.00;;;14.80;99.90;;;;;;5025886;28;20034;-68
2022/09/23 10:18:34;;;;;;;0.10;0.10;;;14.80;99.90;;;;;;5025618;28;20041;-69
2022/09/23 10:21:13;;;;;;;0.30;0.30;;;14.80;99.90;;;;;;5025253;28;20119;-70
2022/09/23 10:23:43;;;;;;;0.90;0.55;;;14.80;99.90;;;;;;5024639;28;20034;-69
2022/09/23 10:26:11;;;;;;;0.10;0.10;;;14.80;99.90;;;;;;5033868;28;20083;-70
2022/09/23 10:28:49;;;;;;;0.00;0.00;;;14.80;99.90;;;;;;5034172;28;20052;-70
2022/09/23 10:31:27;;;;;;;1.85;0.77;;;14.90;99.90;;;;;;5032334;28;20133;-70
2022/09/23 10:33:56;;;;;;;0.10;0.10;;;14.90;99.90;;;;;;5022124;28;20393;-70
2022/09/23 10:36:22;;;;;;;0.32;0.32;;;14.90;99.90;;;;;;5037296;28;20060;-69
2022/09/23 10:46:36;;;;;;;1.55;0.90;;;14.90;99.90;;;;;;5018204;28;20497;-70
2022/09/23 10:47:56;;;;;;;0.30;0.30;;;15.00;99.90;;;;;;5035835;28;20417;-70
2022/09/23 10:50:37;;;;;;;0.10;0.10;;;15.00;99.90;;;;;;5025392;28;20080;-70
2022/09/23 10:53:36;;;;;;;0.17;0.17;;;15.00;99.90;;;;;;5028216;28;20041;-70
2022/09/23 10:56:33;;;;;;;0.22;0.22;;;15.00;99.90;;;;;;5039810;28;20046;-70
2022/09/23 10:59:26;;;;;;;0.10;0.10;;;15.10;99.90;;;;;;5029531;28;20450;-70
2022/09/23 11:02:11;;;;;;;0.03;0.03;;;15.10;99.90;;;;;;5028845;28;20050;-70
2022/09/23 11:04:46;;;;;;;0.70;0.70;;;15.10;99.90;;;;;;5020306;28;20041;-70
2022/09/23 11:07:35;;;;;;;1.10;1.00;;;15.10;99.90;;;;;;5036484;28;20048;-70
2022/09/23 11:10:34;;;;;;;0.20;0.20;;;15.10;99.90;;;;;;5018044;28;20539;-70
2022/09/23 11:13:11;;;;;;;0.30;0.30;;;15.20;99.90;;;;;;5045860;28;20045;-70
2022/09/23 11:15:59;;;;;;;0.10;0.10;;;15.20;99.90;;;;;;5038419;28;20435;-71
2022/09/23 11:19:03;;;;;;;0.10;0.10;;;15.30;99.90;;;;;;5035344;28;20461;-70
2022/09/23 11:22:07;;;;;;;0.38;0.38;;;15.30;99.90;;;;;;5020934;28;20383;-70
2022/09/23 11:24:59;;;;;;;0.82;0.50;;;15.30;99.90;;;;;;5031554;28;20068;-70
2022/09/23 11:28:02;;;;;;;0.10;0.10;;;15.30;99.90;;;;;;5047333;28;20067;-70
2022/09/23 11:30:45;;;;;;;1.20;0.80;;;15.30;99.90;;;;;;5033564;28;20049;-70
2022/09/23 11:33:36;;;;;;;0.82;0.82;;;15.40;99.90;;;;;;5031664;28;20042;-71
2022/09/23 11:36:08;;;;;;;0.10;0.10;;;15.40;99.90;;;;;;5030095;28;20053;-71
2022/09/23 11:38:43;;;;;;;0.73;0.73;;;15.30;99.90;;;;;;5028494;28;20045;-70
2022/09/23 11:41:30;;;;;;;2.38;1.63;;;15.30;99.90;;;;;;5032605;28;20435;-71
2022/09/23 11:44:22;;;;;;;0.43;0.30;;;15.20;99.90;;;;;;5032902;28;20049;-70
2022/09/23 11:46:56;;;;;;;2.65;1.05;;;15.20;99.90;;;;;;5029321;28;20046;-69
2022/09/23 11:49:42;;;;;;;0.10;0.10;;;15.20;99.90;;;;;;5040733;28;20089;-70
2022/09/23 11:52:30;;;;;;;1.52;1.42;;;15.20;99.90;;;;;;5029909;28;20093;-70
2022/09/23 11:55:16;;;;;;;0.20;0.20;;;15.20;99.90;;;;;;5026002;28;20132;-69
2022/09/23 11:57:55;;;;;;;0.17;0.17;;;15.20;99.90;;;;;;5027589;28;20045;-70
2022/09/23 12:00:24;;;;;;;0.20;0.20;;;15.20;99.90;;;;;;5028674;28;20119;-70
2022/09/23 12:02:59;;;;;;;0.40;0.40;;;15.20;99.90;;;;;;5026595;28;20136;-70
2022/09/23 12:05:59;;;;;;;0.17;0.17;;;15.30;99.90;;;;;;5026789;28;20100;-70
2022/09/23 12:08:31;;;;;;;0.03;0.03;;;15.30;99.90;;;;;;5035030;28;20148;-70
2022/09/23 12:11:27;;;;;;;0.40;0.40;;;15.30;99.90;;;;;;5027022;28;20041;-70
2022/09/23 12:14:45;;;;;;;0.10;0.10;;;15.40;99.90;;;;;;5040865;28;20673;-71
2022/09/23 12:17:43;;;;;;;0.30;0.30;;;15.40;99.90;;;;;;5026522;28;20056;-70
2022/09/23 12:20:23;;;;;;;0.00;0.00;;;15.40;99.90;;;;;;5034395;28;20056;-71
2022/09/23 12:22:55;;;;;;;0.20;0.20;;;15.50;99.90;;;;;;5039747;28;20049;-70
2022/09/23 12:25:48;;;;;;;0.30;0.30;;;15.50;99.90;;;;;;5030466;28;20135;-70
2022/09/23 12:28:21;;;;;;;0.57;0.47;;;15.50;99.90;;;;;;5043866;28;20396;-70
2022/09/23 12:30:48;;;;;;;0.10;0.10;;;15.50;99.90;;;;;;5040733;28;20037;-70
2022/09/23 12:33:25;;;;;;;0.30;0.30;;;15.50;99.90;;;;;;5040594;28;20124;-70
2022/09/23 12:36:02;;;;;;;0.75;0.75;;;15.50;99.90;;;;;;5039370;28;20084;-70
2022/09/23 12:38:38;;;;;;;0.10;0.10;;;15.50;99.90;;;;;;5024002;28;20050;-71
2022/09/23 12:41:22;;;;;;;0.10;0.10;;;15.50;99.90;;;;;;5033343;28;20488;-71
2022/09/23 12:43:59;;;;;;;0.30;0.30;;;15.50;99.90;;;;;;5030878;28;20511;-70
2022/09/23 12:46:26;;;;;;;0.10;0.10;;;15.50;99.90;;;;;;5026954;28;20038;-71
2022/09/23 12:48:56;;;;;;;6.85;2.83;;;15.50;99.90;;;;;;5027452;28;20513;-70
2022/09/23 12:51:23;;;;;;;0.75;0.70;;;15.40;99.90;;;;;;5029013;28;20084;-70
2022/09/23 12:54:14;;;;;;;0.45;0.45;;;15.40;99.90;;;;;;5034722;28;20045;-70
2022/09/23 12:56:39;;;;;;;0.57;0.57;;;15.30;99.90;;;;;;5030173;28;20056;-71
2022/09/23 12:59:25;;;;;;;0.10;0.10;;;15.30;99.90;;;;;;5024740;28;20564;-71
2022/09/23 13:01:50;;;;;;;0.10;0.10;;;15.30;99.90;;;;;;5031657;28;20046;-70
2022/09/23 13:07:24;;;;;;;0.10;0.10;;;15.40;99.90;;;;;;5029736;28;20494;-70
2022/09/23 13:09:57;;;;;;;0.20;0.20;;;15.40;99.90;;;;;;5040749;28;20044;-70
2022/09/23 13:12:34;;;;;;;0.70;0.70;;;15.40;99.90;;;;;;5040392;28;20057;-70
2022/09/23 13:15:05;;;;;;;0.25;0.25;;;15.40;99.90;;;;;;5034836;28;20127;-70
2022/09/23 13:17:37;;;;;;;0.00;0.00;;;15.40;99.90;;;;;;5029122;28;20079;-70
2022/09/23 13:20:18;;;;;;;0.20;0.20;;;15.40;99.90;;;;;;5021237;28;20038;-70
2022/09/23 13:22:53;;;;;;;0.35;0.32;;;15.30;99.90;;;;;;5037614;28;20501;-70
2022/09/23 13:25:23;;;;;;;0.10;0.10;;;15.30;99.90;;;;;;5023519;28;20076;-69
2022/09/23 13:27:53;;;;;;;0.22;0.22;;;15.30;99.90;;;;;;5025755;28;20042;-69
2022/09/23 13:30:22;;;;;;;0.20;0.20;;;15.20;99.90;;;;;;5020890;28;20041;-69